aviador You're here:

VOBL Decoded Metar

Bengaluru in INDIA
Report Time2017-08-18 14:00:00
UTC Time2017-08-18 14:27:53
Flight Rules mvfr MVFR
Wind250° at 07 kt
W.Decomp.*RWY 27: 6.6 kt HW 2.3 kt LCW
W.Rank250° ranks 4
Current wind is below 250° avg. (9.2)
Visibility6000 m
Phenomena:N/A
Clouds:Scattered 012 Hf
Scattered 018 Hf
Few CB 025 Hf
CeilingNone
Temp22°C (ISA +13)
Dew Point22°C (100% RH)
QNH1009 hPa
Density Alt5,007 ft
Elevation3,002 ft
Report Wrong Elevation
Raw Report
METAR VOBL 181400Z 25007KT 6000 SCT012 SCT018 FEW025CB 22/22 Q1009
NOSIG=

Extra information for VOBL:More info

Metar Taf Metar & Taf Last 4 Metars F.Rules Stats Wind Profile Meteogram Temp Stats Airport Information Weather charts Add Link Nearby VenuesMetar ALERT Operation Metar Decoded Social comments